sensor_id;sensor_type;location;lat;lon;timestamp;P1;durP1;ratioP1;P2;durP2;ratioP2
47764;SDS011;33529;49.242;8.670;2022-12-07T00:01:25;6.30;;;3.97;;
47764;SDS011;33529;49.242;8.670;2022-12-07T00:03:54;6.20;;;3.30;;
47764;SDS011;33529;49.242;8.670;2022-12-07T00:06:26;6.93;;;3.47;;
47764;SDS011;33529;49.242;8.670;2022-12-07T00:08:53;7.15;;;4.05;;
47764;SDS011;33529;49.242;8.670;2022-12-07T00:11:21;7.38;;;4.35;;
47764;SDS011;33529;49.242;8.670;2022-12-07T00:13:52;7.90;;;3.95;;
47764;SDS011;33529;49.242;8.670;2022-12-07T00:16:21;6.82;;;4.60;;
47764;SDS011;33529;49.242;8.670;2022-12-07T00:18:49;9.18;;;4.25;;
47764;SDS011;33529;49.242;8.670;2022-12-07T00:21:17;5.53;;;3.33;;
47764;SDS011;33529;49.242;8.670;2022-12-07T00:23:46;5.90;;;3.20;;
47764;SDS011;33529;49.242;8.670;2022-12-07T00:26:21;5.07;;;3.67;;
47764;SDS011;33529;49.242;8.670;2022-12-07T00:28:50;4.68;;;3.20;;
47764;SDS011;33529;49.242;8.670;2022-12-07T00:31:19;5.50;;;3.00;;
47764;SDS011;33529;49.242;8.670;2022-12-07T00:33:47;5.45;;;3.45;;
47764;SDS011;33529;49.242;8.670;2022-12-07T00:36:19;6.38;;;2.97;;
47764;SDS011;33529;49.242;8.670;2022-12-07T00:38:53;4.20;;;2.92;;
47764;SDS011;33529;49.242;8.670;2022-12-07T00:41:21;8.18;;;3.47;;
47764;SDS011;33529;49.242;8.670;2022-12-07T00:43:49;7.57;;;3.88;;
47764;SDS011;33529;49.242;8.670;2022-12-07T00:46:16;4.85;;;3.00;;
47764;SDS011;33529;49.242;8.670;2022-12-07T00:48:44;4.03;;;2.40;;
47764;SDS011;33529;49.242;8.670;2022-12-07T00:51:12;4.03;;;2.67;;
47764;SDS011;33529;49.242;8.670;2022-12-07T00:53:41;5.05;;;3.08;;
47764;SDS011;33529;49.242;8.670;2022-12-07T00:56:15;5.53;;;3.03;;
47764;SDS011;33529;49.242;8.670;2022-12-07T00:58:42;5.75;;;3.42;;
47764;SDS011;33529;49.242;8.670;2022-12-07T01:01:09;5.88;;;2.95;;
47764;SDS011;33529;49.242;8.670;2022-12-07T01:03:37;5.40;;;3.33;;
47764;SDS011;33529;49.242;8.670;2022-12-07T01:06:04;7.43;;;3.72;;
47764;SDS011;33529;49.242;8.670;2022-12-07T01:08:31;5.72;;;3.65;;
47764;SDS011;33529;49.242;8.670;2022-12-07T01:11:03;6.95;;;3.42;;
47764;SDS011;33529;49.242;8.670;2022-12-07T01:13:32;6.60;;;4.47;;
47764;SDS011;33529;49.242;8.670;2022-12-07T01:16:02;6.70;;;4.47;;
47764;SDS011;33529;49.242;8.670;2022-12-07T01:18:31;5.88;;;3.85;;
47764;SDS011;33529;49.242;8.670;2022-12-07T01:21:04;5.32;;;3.33;;
47764;SDS011;33529;49.242;8.670;2022-12-07T01:23:42;5.13;;;3.47;;
47764;SDS011;33529;49.242;8.670;2022-12-07T01:26:11;7.53;;;4.43;;
47764;SDS011;33529;49.242;8.670;2022-12-07T01:28:40;6.80;;;4.13;;
47764;SDS011;33529;49.242;8.670;2022-12-07T01:31:08;6.03;;;3.97;;
47764;SDS011;33529;49.242;8.670;2022-12-07T01:33:44;6.97;;;4.95;;
47764;SDS011;33529;49.242;8.670;2022-12-07T01:36:13;7.80;;;4.72;;
47764;SDS011;33529;49.242;8.670;2022-12-07T01:38:45;7.60;;;4.13;;
47764;SDS011;33529;49.242;8.670;2022-12-07T01:41:12;7.68;;;4.45;;
47764;SDS011;33529;49.242;8.670;2022-12-07T01:46:42;6.32;;;3.92;;
47764;SDS011;33529;49.242;8.670;2022-12-07T01:49:18;6.88;;;4.05;;
47764;SDS011;33529;49.242;8.670;2022-12-07T01:51:47;6.20;;;3.92;;
47764;SDS011;33529;49.242;8.670;2022-12-07T01:54:18;6.77;;;4.77;;
47764;SDS011;33529;49.242;8.670;2022-12-07T01:56:48;6.55;;;4.60;;
47764;SDS011;33529;49.242;8.670;2022-12-07T01:59:18;8.30;;;4.75;;
47764;SDS011;33529;49.242;8.670;2022-12-07T02:01:48;6.57;;;4.30;;
47764;SDS011;33529;49.242;8.670;2022-12-07T02:04:15;5.53;;;3.78;;
47764;SDS011;33529;49.242;8.670;2022-12-07T02:06:42;5.53;;;3.72;;
47764;SDS011;33529;49.242;8.670;2022-12-07T02:09:11;6.97;;;4.40;;
47764;SDS011;33529;49.242;8.670;2022-12-07T02:11:38;6.55;;;4.45;;
47764;SDS011;33529;49.242;8.670;2022-12-07T02:14:08;8.50;;;4.22;;
47764;SDS011;33529;49.242;8.670;2022-12-07T02:25:41;9.15;;;5.07;;
47764;SDS011;33529;49.242;8.670;2022-12-07T02:30:49;8.55;;;5.47;;
47764;SDS011;33529;49.242;8.670;2022-12-07T02:33:19;9.68;;;4.93;;
47764;SDS011;33529;49.242;8.670;2022-12-07T02:35:57;9.73;;;5.03;;
47764;SDS011;33529;49.242;8.670;2022-12-07T02:41:23;7.00;;;4.65;;
47764;SDS011;33529;49.242;8.670;2022-12-07T02:43:55;7.95;;;4.65;;
47764;SDS011;33529;49.242;8.670;2022-12-07T02:46:25;9.80;;;5.53;;
47764;SDS011;33529;49.242;8.670;2022-12-07T02:49:00;8.30;;;4.47;;
47764;SDS011;33529;49.242;8.670;2022-12-07T02:51:31;8.43;;;5.35;;
47764;SDS011;33529;49.242;8.670;2022-12-07T02:53:59;8.02;;;5.18;;
47764;SDS011;33529;49.242;8.670;2022-12-07T02:59:21;8.70;;;4.50;;
47764;SDS011;33529;49.242;8.670;2022-12-07T03:05:45;6.63;;;4.32;;
47764;SDS011;33529;49.242;8.670;2022-12-07T03:08:02;8.20;;;5.07;;
47764;SDS011;33529;49.242;8.670;2022-12-07T03:18:40;8.65;;;4.85;;
47764;SDS011;33529;49.242;8.670;2022-12-07T03:21:15;8.70;;;5.20;;
47764;SDS011;33529;49.242;8.670;2022-12-07T03:23:48;11.45;;;5.32;;
47764;SDS011;33529;49.242;8.670;2022-12-07T03:26:18;7.65;;;5.13;;
47764;SDS011;33529;49.242;8.670;2022-12-07T03:28:49;9.15;;;5.80;;
47764;SDS011;33529;49.242;8.670;2022-12-07T03:31:22;7.25;;;4.82;;
47764;SDS011;33529;49.242;8.670;2022-12-07T03:33:55;7.95;;;4.93;;
47764;SDS011;33529;49.242;8.670;2022-12-07T03:36:35;9.75;;;5.82;;
47764;SDS011;33529;49.242;8.670;2022-12-07T03:39:41;9.18;;;5.15;;
47764;SDS011;33529;49.242;8.670;2022-12-07T03:42:24;10.85;;;5.07;;
47764;SDS011;33529;49.242;8.670;2022-12-07T03:44:51;7.57;;;4.78;;
47764;SDS011;33529;49.242;8.670;2022-12-07T03:50:19;7.32;;;5.00;;
47764;SDS011;33529;49.242;8.670;2022-12-07T03:52:55;6.85;;;4.65;;
47764;SDS011;33529;49.242;8.670;2022-12-07T03:55:31;8.57;;;4.88;;
47764;SDS011;33529;49.242;8.670;2022-12-07T03:58:09;8.50;;;4.70;;
47764;SDS011;33529;49.242;8.670;2022-12-07T04:00:40;10.00;;;5.72;;
47764;SDS011;33529;49.242;8.670;2022-12-07T04:03:07;7.43;;;4.32;;
47764;SDS011;33529;49.242;8.670;2022-12-07T04:05:35;11.25;;;5.72;;
47764;SDS011;33529;49.242;8.670;2022-12-07T04:08:03;8.20;;;5.20;;
47764;SDS011;33529;49.242;8.670;2022-12-07T04:10:30;9.00;;;4.93;;
47764;SDS011;33529;49.242;8.670;2022-12-07T04:12:57;11.15;;;5.22;;
47764;SDS011;33529;49.242;8.670;2022-12-07T04:15:24;8.57;;;4.95;;
47764;SDS011;33529;49.242;8.670;2022-12-07T04:17:51;7.95;;;4.93;;
47764;SDS011;33529;49.242;8.670;2022-12-07T04:20:17;7.93;;;4.68;;
47764;SDS011;33529;49.242;8.670;2022-12-07T04:22:44;10.05;;;4.72;;
47764;SDS011;33529;49.242;8.670;2022-12-07T04:25:11;9.88;;;5.15;;
47764;SDS011;33529;49.242;8.670;2022-12-07T04:27:38;11.43;;;5.07;;
47764;SDS011;33529;49.242;8.670;2022-12-07T04:30:05;7.55;;;4.68;;
47764;SDS011;33529;49.242;8.670;2022-12-07T04:32:32;9.07;;;5.03;;
47764;SDS011;33529;49.242;8.670;2022-12-07T04:34:59;11.45;;;5.25;;
47764;SDS011;33529;49.242;8.670;2022-12-07T04:37:26;8.13;;;5.25;;
47764;SDS011;33529;49.242;8.670;2022-12-07T04:39:53;9.63;;;5.05;;
47764;SDS011;33529;49.242;8.670;2022-12-07T04:42:20;9.85;;;5.22;;
47764;SDS011;33529;49.242;8.670;2022-12-07T04:44:46;7.18;;;4.82;;
47764;SDS011;33529;49.242;8.670;2022-12-07T04:47:13;9.38;;;4.90;;
47764;SDS011;33529;49.242;8.670;2022-12-07T04:49:40;10.27;;;5.75;;
47764;SDS011;33529;49.242;8.670;2022-12-07T04:52:07;11.23;;;5.15;;
47764;SDS011;33529;49.242;8.670;2022-12-07T04:54:33;7.00;;;5.00;;
47764;SDS011;33529;49.242;8.670;2022-12-07T04:57:01;10.43;;;5.70;;
47764;SDS011;33529;49.242;8.670;2022-12-07T04:59:28;10.10;;;5.50;;
47764;SDS011;33529;49.242;8.670;2022-12-07T05:01:55;8.25;;;5.20;;
47764;SDS011;33529;49.242;8.670;2022-12-07T05:04:21;8.45;;;5.20;;
47764;SDS011;33529;49.242;8.670;2022-12-07T05:06:48;11.15;;;5.78;;
47764;SDS011;33529;49.242;8.670;2022-12-07T05:09:15;9.02;;;5.13;;
47764;SDS011;33529;49.242;8.670;2022-12-07T05:11:42;9.82;;;5.97;;
47764;SDS011;33529;49.242;8.670;2022-12-07T05:14:11;9.00;;;5.10;;
47764;SDS011;33529;49.242;8.670;2022-12-07T05:16:42;11.00;;;6.50;;
47764;SDS011;33529;49.242;8.670;2022-12-07T05:19:11;10.23;;;5.82;;
47764;SDS011;33529;49.242;8.670;2022-12-07T05:21:38;9.00;;;5.50;;
47764;SDS011;33529;49.242;8.670;2022-12-07T05:24:06;8.32;;;5.35;;
47764;SDS011;33529;49.242;8.670;2022-12-07T05:26:34;10.55;;;5.95;;
47764;SDS011;33529;49.242;8.670;2022-12-07T05:29:01;10.90;;;6.20;;
47764;SDS011;33529;49.242;8.670;2022-12-07T05:31:28;10.80;;;6.00;;
47764;SDS011;33529;49.242;8.670;2022-12-07T05:33:55;11.60;;;6.15;;
47764;SDS011;33529;49.242;8.670;2022-12-07T05:36:22;9.65;;;5.63;;
47764;SDS011;33529;49.242;8.670;2022-12-07T05:38:49;10.68;;;5.38;;
47764;SDS011;33529;49.242;8.670;2022-12-07T05:41:17;11.90;;;6.68;;
47764;SDS011;33529;49.242;8.670;2022-12-07T05:44:03;8.70;;;5.18;;
47764;SDS011;33529;49.242;8.670;2022-12-07T05:46:31;9.68;;;6.38;;
47764;SDS011;33529;49.242;8.670;2022-12-07T05:48:58;8.73;;;5.45;;
47764;SDS011;33529;49.242;8.670;2022-12-07T05:51:26;10.23;;;5.68;;
47764;SDS011;33529;49.242;8.670;2022-12-07T05:53:52;9.15;;;5.95;;
47764;SDS011;33529;49.242;8.670;2022-12-07T05:56:19;13.63;;;6.47;;
47764;SDS011;33529;49.242;8.670;2022-12-07T05:58:46;9.05;;;4.82;;
47764;SDS011;33529;49.242;8.670;2022-12-07T06:01:32;11.18;;;5.68;;
47764;SDS011;33529;49.242;8.670;2022-12-07T06:03:59;10.60;;;6.00;;
47764;SDS011;33529;49.242;8.670;2022-12-07T06:06:25;10.95;;;5.63;;
47764;SDS011;33529;49.242;8.670;2022-12-07T06:08:52;11.40;;;5.70;;
47764;SDS011;33529;49.242;8.670;2022-12-07T06:11:19;9.23;;;4.63;;
47764;SDS011;33529;49.242;8.670;2022-12-07T06:14:05;10.88;;;6.18;;
47764;SDS011;33529;49.242;8.670;2022-12-07T06:16:32;9.98;;;5.57;;
47764;SDS011;33529;49.242;8.670;2022-12-07T06:18:59;10.45;;;6.00;;
47764;SDS011;33529;49.242;8.670;2022-12-07T06:21:26;10.60;;;5.45;;
47764;SDS011;33529;49.242;8.670;2022-12-07T06:23:53;10.27;;;5.68;;
47764;SDS011;33529;49.242;8.670;2022-12-07T06:26:21;9.23;;;5.80;;
47764;SDS011;33529;49.242;8.670;2022-12-07T06:28:48;13.00;;;6.40;;
47764;SDS011;33529;49.242;8.670;2022-12-07T06:31:14;7.75;;;4.80;;
47764;SDS011;33529;49.242;8.670;2022-12-07T06:33:41;10.50;;;6.07;;
47764;SDS011;33529;49.242;8.670;2022-12-07T06:36:08;9.32;;;5.50;;
47764;SDS011;33529;49.242;8.670;2022-12-07T06:38:36;10.25;;;5.63;;
47764;SDS011;33529;49.242;8.670;2022-12-07T06:41:03;9.77;;;5.60;;
47764;SDS011;33529;49.242;8.670;2022-12-07T06:43:30;13.45;;;6.32;;
47764;SDS011;33529;49.242;8.670;2022-12-07T06:45:57;10.55;;;6.00;;
47764;SDS011;33529;49.242;8.670;2022-12-07T06:48:23;9.73;;;4.93;;
47764;SDS011;33529;49.242;8.670;2022-12-07T06:50:50;10.73;;;6.25;;
47764;SDS011;33529;49.242;8.670;2022-12-07T06:53:20;12.35;;;6.57;;
47764;SDS011;33529;49.242;8.670;2022-12-07T06:55:47;11.02;;;6.03;;
47764;SDS011;33529;49.242;8.670;2022-12-07T06:58:14;11.07;;;5.85;;
47764;SDS011;33529;49.242;8.670;2022-12-07T07:00:41;10.75;;;5.38;;
47764;SDS011;33529;49.242;8.670;2022-12-07T07:03:08;11.85;;;6.00;;
47764;SDS011;33529;49.242;8.670;2022-12-07T07:05:34;9.88;;;5.88;;
47764;SDS011;33529;49.242;8.670;2022-12-07T07:08:01;9.18;;;4.88;;
47764;SDS011;33529;49.242;8.670;2022-12-07T07:10:49;9.55;;;5.75;;
47764;SDS011;33529;49.242;8.670;2022-12-07T07:13:16;11.45;;;6.28;;
47764;SDS011;33529;49.242;8.670;2022-12-07T07:15:43;11.18;;;5.85;;
47764;SDS011;33529;49.242;8.670;2022-12-07T07:18:10;9.43;;;5.68;;
47764;SDS011;33529;49.242;8.670;2022-12-07T07:20:37;10.98;;;5.57;;
47764;SDS011;33529;49.242;8.670;2022-12-07T07:23:05;9.38;;;5.18;;
47764;SDS011;33529;49.242;8.670;2022-12-07T07:25:33;11.30;;;5.90;;
47764;SDS011;33529;49.242;8.670;2022-12-07T07:28:00;8.00;;;5.22;;
47764;SDS011;33529;49.242;8.670;2022-12-07T07:30:27;9.45;;;5.20;;
47764;SDS011;33529;49.242;8.670;2022-12-07T07:32:57;11.23;;;5.35;;
47764;SDS011;33529;49.242;8.670;2022-12-07T07:35:25;11.65;;;5.72;;
47764;SDS011;33529;49.242;8.670;2022-12-07T07:37:52;10.23;;;5.53;;
47764;SDS011;33529;49.242;8.670;2022-12-07T07:40:19;7.93;;;4.50;;
47764;SDS011;33529;49.242;8.670;2022-12-07T07:42:47;8.93;;;5.18;;
47764;SDS011;33529;49.242;8.670;2022-12-07T07:45:14;9.77;;;5.40;;
47764;SDS011;33529;49.242;8.670;2022-12-07T07:47:41;8.32;;;5.18;;
47764;SDS011;33529;49.242;8.670;2022-12-07T07:50:08;9.10;;;5.63;;
47764;SDS011;33529;49.242;8.670;2022-12-07T07:52:35;9.93;;;5.22;;
47764;SDS011;33529;49.242;8.670;2022-12-07T07:55:04;9.48;;;4.97;;
47764;SDS011;33529;49.242;8.670;2022-12-07T07:57:32;9.98;;;5.90;;
47764;SDS011;33529;49.242;8.670;2022-12-07T07:59:58;8.95;;;5.38;;
47764;SDS011;33529;49.242;8.670;2022-12-07T08:02:26;9.57;;;5.38;;
47764;SDS011;33529;49.242;8.670;2022-12-07T08:04:55;8.45;;;5.10;;
47764;SDS011;33529;49.242;8.670;2022-12-07T08:07:24;9.02;;;5.28;;
47764;SDS011;33529;49.242;8.670;2022-12-07T08:09:53;7.32;;;4.60;;
47764;SDS011;33529;49.242;8.670;2022-12-07T08:12:20;9.75;;;4.95;;
47764;SDS011;33529;49.242;8.670;2022-12-07T08:14:46;9.63;;;5.53;;
47764;SDS011;33529;49.242;8.670;2022-12-07T08:17:13;12.48;;;6.03;;
47764;SDS011;33529;49.242;8.670;2022-12-07T08:19:40;10.98;;;6.32;;
47764;SDS011;33529;49.242;8.670;2022-12-07T08:22:06;8.68;;;5.38;;
47764;SDS011;33529;49.242;8.670;2022-12-07T08:24:33;9.15;;;5.47;;
47764;SDS011;33529;49.242;8.670;2022-12-07T08:27:03;9.00;;;5.28;;
47764;SDS011;33529;49.242;8.670;2022-12-07T08:29:30;9.35;;;5.72;;
47764;SDS011;33529;49.242;8.670;2022-12-07T08:31:57;9.30;;;5.03;;
47764;SDS011;33529;49.242;8.670;2022-12-07T08:34:24;8.07;;;4.82;;
47764;SDS011;33529;49.242;8.670;2022-12-07T08:36:50;11.20;;;5.93;;
47764;SDS011;33529;49.242;8.670;2022-12-07T08:39:17;8.15;;;4.97;;
47764;SDS011;33529;49.242;8.670;2022-12-07T08:41:59;8.73;;;5.18;;
47764;SDS011;33529;49.242;8.670;2022-12-07T08:44:26;7.68;;;4.75;;
47764;SDS011;33529;49.242;8.670;2022-12-07T08:46:54;10.77;;;5.80;;
47764;SDS011;33529;49.242;8.670;2022-12-07T08:49:26;9.07;;;5.07;;
47764;SDS011;33529;49.242;8.670;2022-12-07T08:52:05;9.00;;;4.55;;
47764;SDS011;33529;49.242;8.670;2022-12-07T08:54:33;9.45;;;5.32;;
47764;SDS011;33529;49.242;8.670;2022-12-07T08:57:03;9.57;;;5.20;;
47764;SDS011;33529;49.242;8.670;2022-12-07T08:59:31;10.38;;;5.72;;
47764;SDS011;33529;49.242;8.670;2022-12-07T09:01:59;8.68;;;5.05;;
47764;SDS011;33529;49.242;8.670;2022-12-07T09:04:26;6.75;;;4.50;;
47764;SDS011;33529;49.242;8.670;2022-12-07T09:06:54;8.00;;;4.45;;
47764;SDS011;33529;49.242;8.670;2022-12-07T09:09:21;8.00;;;4.78;;
47764;SDS011;33529;49.242;8.670;2022-12-07T09:11:48;7.75;;;4.82;;
47764;SDS011;33529;49.242;8.670;2022-12-07T09:14:15;9.30;;;5.25;;
47764;SDS011;33529;49.242;8.670;2022-12-07T09:16:43;9.25;;;4.95;;
47764;SDS011;33529;49.242;8.670;2022-12-07T09:19:10;7.57;;;3.72;;
47764;SDS011;33529;49.242;8.670;2022-12-07T09:21:36;9.63;;;4.28;;
47764;SDS011;33529;49.242;8.670;2022-12-07T09:24:03;9.70;;;4.88;;
47764;SDS011;33529;49.242;8.670;2022-12-07T09:26:30;9.05;;;5.03;;
47764;SDS011;33529;49.242;8.670;2022-12-07T09:28:57;9.45;;;5.47;;
47764;SDS011;33529;49.242;8.670;2022-12-07T09:31:24;9.05;;;4.63;;
47764;SDS011;33529;49.242;8.670;2022-12-07T09:33:55;9.18;;;5.00;;
47764;SDS011;33529;49.242;8.670;2022-12-07T09:36:23;9.38;;;5.60;;
47764;SDS011;33529;49.242;8.670;2022-12-07T09:38:51;9.00;;;4.95;;
47764;SDS011;33529;49.242;8.670;2022-12-07T09:41:18;9.13;;;5.45;;
47764;SDS011;33529;49.242;8.670;2022-12-07T09:43:47;10.95;;;5.88;;
47764;SDS011;33529;49.242;8.670;2022-12-07T09:46:15;9.98;;;5.28;;
47764;SDS011;33529;49.242;8.670;2022-12-07T09:48:45;12.83;;;5.70;;
47764;SDS011;33529;49.242;8.670;2022-12-07T09:51:16;8.60;;;4.55;;
47764;SDS011;33529;49.242;8.670;2022-12-07T09:53:50;10.52;;;5.90;;
47764;SDS011;33529;49.242;8.670;2022-12-07T09:56:18;8.93;;;5.25;;
47764;SDS011;33529;49.242;8.670;2022-12-07T09:58:46;11.38;;;5.47;;
47764;SDS011;33529;49.242;8.670;2022-12-07T10:01:15;8.63;;;5.00;;
47764;SDS011;33529;49.242;8.670;2022-12-07T10:03:47;9.55;;;4.78;;
47764;SDS011;33529;49.242;8.670;2022-12-07T10:06:19;11.02;;;5.30;;
47764;SDS011;33529;49.242;8.670;2022-12-07T10:08:46;8.82;;;4.82;;
47764;SDS011;33529;49.242;8.670;2022-12-07T10:11:13;7.50;;;5.05;;
47764;SDS011;33529;49.242;8.670;2022-12-07T10:13:45;10.40;;;5.40;;
47764;SDS011;33529;49.242;8.670;2022-12-07T10:16:37;7.68;;;4.75;;
47764;SDS011;33529;49.242;8.670;2022-12-07T10:19:51;9.13;;;5.47;;
47764;SDS011;33529;49.242;8.670;2022-12-07T10:22:15;7.15;;;4.13;;
47764;SDS011;33529;49.242;8.670;2022-12-07T10:24:43;6.73;;;4.03;;
47764;SDS011;33529;49.242;8.670;2022-12-07T10:27:26;7.68;;;3.72;;
47764;SDS011;33529;49.242;8.670;2022-12-07T10:29:58;10.35;;;4.82;;
47764;SDS011;33529;49.242;8.670;2022-12-07T10:32:35;8.85;;;5.07;;
47764;SDS011;33529;49.242;8.670;2022-12-07T10:35:36;8.43;;;4.40;;
47764;SDS011;33529;49.242;8.670;2022-12-07T10:37:57;8.52;;;4.28;;
47764;SDS011;33529;49.242;8.670;2022-12-07T10:40:27;7.80;;;3.92;;
47764;SDS011;33529;49.242;8.670;2022-12-07T10:43:00;11.45;;;5.55;;
47764;SDS011;33529;49.242;8.670;2022-12-07T10:49:15;9.02;;;4.05;;
47764;SDS011;33529;49.242;8.670;2022-12-07T10:51:46;7.15;;;4.13;;
47764;SDS011;33529;49.242;8.670;2022-12-07T10:57:15;9.32;;;5.30;;
47764;SDS011;33529;49.242;8.670;2022-12-07T11:00:02;8.68;;;4.43;;
47764;SDS011;33529;49.242;8.670;2022-12-07T11:05:20;7.50;;;3.97;;
47764;SDS011;33529;49.242;8.670;2022-12-07T11:16:01;9.20;;;4.43;;
47764;SDS011;33529;49.242;8.670;2022-12-07T11:18:44;8.07;;;3.78;;
47764;SDS011;33529;49.242;8.670;2022-12-07T11:21:20;7.32;;;4.20;;
47764;SDS011;33529;49.242;8.670;2022-12-07T11:24:01;7.32;;;4.22;;
47764;SDS011;33529;49.242;8.670;2022-12-07T11:29:41;6.80;;;4.40;;
47764;SDS011;33529;49.242;8.670;2022-12-07T11:35:07;8.02;;;4.68;;
47764;SDS011;33529;49.242;8.670;2022-12-07T11:37:55;6.90;;;4.25;;
47764;SDS011;33529;49.242;8.670;2022-12-07T11:40:31;8.93;;;4.82;;
47764;SDS011;33529;49.242;8.670;2022-12-07T11:43:09;6.60;;;3.72;;
47764;SDS011;33529;49.242;8.670;2022-12-07T11:45:47;8.43;;;4.57;;
47764;SDS011;33529;49.242;8.670;2022-12-07T11:48:22;9.30;;;4.57;;
47764;SDS011;33529;49.242;8.670;2022-12-07T11:50:58;9.23;;;4.20;;
47764;SDS011;33529;49.242;8.670;2022-12-07T11:53:28;8.65;;;4.32;;
47764;SDS011;33529;49.242;8.670;2022-12-07T11:55:59;9.45;;;4.85;;
47764;SDS011;33529;49.242;8.670;2022-12-07T12:01:41;7.82;;;4.63;;
47764;SDS011;33529;49.242;8.670;2022-12-07T12:04:24;10.35;;;4.70;;
47764;SDS011;33529;49.242;8.670;2022-12-07T12:06:58;6.93;;;4.43;;
47764;SDS011;33529;49.242;8.670;2022-12-07T12:09:54;8.70;;;4.38;;
47764;SDS011;33529;49.242;8.670;2022-12-07T12:15:45;8.02;;;3.92;;
47764;SDS011;33529;49.242;8.670;2022-12-07T12:18:29;10.10;;;4.20;;
47764;SDS011;33529;49.242;8.670;2022-12-07T12:21:26;7.20;;;4.13;;
47764;SDS011;33529;49.242;8.670;2022-12-07T12:23:57;9.43;;;4.93;;
47764;SDS011;33529;49.242;8.670;2022-12-07T12:26:28;10.05;;;5.07;;
47764;SDS011;33529;49.242;8.670;2022-12-07T12:28:58;11.57;;;5.00;;
47764;SDS011;33529;49.242;8.670;2022-12-07T12:31:32;8.40;;;5.07;;
47764;SDS011;33529;49.242;8.670;2022-12-07T12:45:17;9.02;;;4.65;;
47764;SDS011;33529;49.242;8.670;2022-12-07T12:47:53;7.55;;;4.45;;
47764;SDS011;33529;49.242;8.670;2022-12-07T12:50:45;9.20;;;4.60;;
47764;SDS011;33529;49.242;8.670;2022-12-07T12:53:24;8.73;;;4.78;;
47764;SDS011;33529;49.242;8.670;2022-12-07T12:58:29;8.15;;;5.32;;
47764;SDS011;33529;49.242;8.670;2022-12-07T13:04:01;7.88;;;5.00;;
47764;SDS011;33529;49.242;8.670;2022-12-07T13:06:35;9.23;;;5.45;;
47764;SDS011;33529;49.242;8.670;2022-12-07T13:09:04;10.27;;;4.95;;
47764;SDS011;33529;49.242;8.670;2022-12-07T13:11:44;9.45;;;5.07;;
47764;SDS011;33529;49.242;8.670;2022-12-07T13:17:54;8.23;;;5.00;;
47764;SDS011;33529;49.242;8.670;2022-12-07T13:20:04;8.48;;;4.82;;
47764;SDS011;33529;49.242;8.670;2022-12-07T13:22:43;8.00;;;4.57;;
47764;SDS011;33529;49.242;8.670;2022-12-07T13:25:27;8.27;;;4.93;;
47764;SDS011;33529;49.242;8.670;2022-12-07T13:28:00;9.38;;;4.80;;
47764;SDS011;33529;49.242;8.670;2022-12-07T13:30:40;8.40;;;4.72;;
47764;SDS011;33529;49.242;8.670;2022-12-07T13:33:35;12.10;;;7.75;;
47764;SDS011;33529;49.242;8.670;2022-12-07T13:36:02;7.60;;;4.10;;
47764;SDS011;33529;49.242;8.670;2022-12-07T13:38:33;9.13;;;6.00;;
47764;SDS011;33529;49.242;8.670;2022-12-07T13:46:35;8.18;;;4.32;;
47764;SDS011;33529;49.242;8.670;2022-12-07T13:49:18;8.18;;;4.05;;
47764;SDS011;33529;49.242;8.670;2022-12-07T13:51:50;7.20;;;4.32;;
47764;SDS011;33529;49.242;8.670;2022-12-07T13:54:18;7.53;;;4.32;;
47764;SDS011;33529;49.242;8.670;2022-12-07T13:56:51;17.08;;;7.65;;
47764;SDS011;33529;49.242;8.670;2022-12-07T13:59:19;8.00;;;4.50;;
47764;SDS011;33529;49.242;8.670;2022-12-07T14:01:49;6.25;;;3.88;;
47764;SDS011;33529;49.242;8.670;2022-12-07T14:04:28;6.63;;;3.97;;
47764;SDS011;33529;49.242;8.670;2022-12-07T14:06:58;7.20;;;4.13;;
47764;SDS011;33529;49.242;8.670;2022-12-07T14:09:27;6.72;;;3.97;;
47764;SDS011;33529;49.242;8.670;2022-12-07T14:11:56;7.65;;;3.88;;
47764;SDS011;33529;49.242;8.670;2022-12-07T14:14:25;7.53;;;4.05;;
47764;SDS011;33529;49.242;8.670;2022-12-07T14:17:18;9.10;;;4.47;;
47764;SDS011;33529;49.242;8.670;2022-12-07T14:19:53;6.45;;;3.15;;
47764;SDS011;33529;49.242;8.670;2022-12-07T14:27:39;7.53;;;4.25;;
47764;SDS011;33529;49.242;8.670;2022-12-07T14:30:15;6.85;;;3.50;;
47764;SDS011;33529;49.242;8.670;2022-12-07T14:32:44;8.52;;;4.25;;
47764;SDS011;33529;49.242;8.670;2022-12-07T14:35:15;7.88;;;4.32;;
47764;SDS011;33529;49.242;8.670;2022-12-07T14:37:44;8.55;;;4.25;;
47764;SDS011;33529;49.242;8.670;2022-12-07T14:40:14;9.15;;;4.82;;
47764;SDS011;33529;49.242;8.670;2022-12-07T14:42:43;8.68;;;5.15;;
47764;SDS011;33529;49.242;8.670;2022-12-07T14:45:13;7.30;;;3.53;;
47764;SDS011;33529;49.242;8.670;2022-12-07T14:47:43;7.45;;;4.63;;
47764;SDS011;33529;49.242;8.670;2022-12-07T14:50:31;5.57;;;3.55;;
47764;SDS011;33529;49.242;8.670;2022-12-07T14:53:05;9.05;;;4.05;;
47764;SDS011;33529;49.242;8.670;2022-12-07T14:55:54;6.65;;;3.47;;
47764;SDS011;33529;49.242;8.670;2022-12-07T14:58:20;7.60;;;4.38;;
47764;SDS011;33529;49.242;8.670;2022-12-07T15:00:48;7.85;;;4.60;;
47764;SDS011;33529;49.242;8.670;2022-12-07T15:03:14;7.57;;;4.55;;
47764;SDS011;33529;49.242;8.670;2022-12-07T15:05:41;9.32;;;4.25;;
47764;SDS011;33529;49.242;8.670;2022-12-07T15:08:09;7.35;;;3.78;;
47764;SDS011;33529;49.242;8.670;2022-12-07T15:10:38;9.32;;;4.80;;
47764;SDS011;33529;49.242;8.670;2022-12-07T15:13:06;8.60;;;4.65;;
47764;SDS011;33529;49.242;8.670;2022-12-07T15:15:53;8.23;;;3.85;;
47764;SDS011;33529;49.242;8.670;2022-12-07T15:18:21;6.60;;;3.60;;
47764;SDS011;33529;49.242;8.670;2022-12-07T15:20:49;8.82;;;4.55;;
47764;SDS011;33529;49.242;8.670;2022-12-07T15:23:16;6.93;;;4.22;;
47764;SDS011;33529;49.242;8.670;2022-12-07T15:25:43;6.47;;;4.35;;
47764;SDS011;33529;49.242;8.670;2022-12-07T15:28:12;6.40;;;4.07;;
47764;SDS011;33529;49.242;8.670;2022-12-07T15:30:39;7.85;;;4.63;;
47764;SDS011;33529;49.242;8.670;2022-12-07T15:33:09;6.80;;;4.13;;
47764;SDS011;33529;49.242;8.670;2022-12-07T15:35:42;6.80;;;3.85;;
47764;SDS011;33529;49.242;8.670;2022-12-07T15:38:10;9.32;;;4.50;;
47764;SDS011;33529;49.242;8.670;2022-12-07T15:40:38;6.75;;;4.07;;
47764;SDS011;33529;49.242;8.670;2022-12-07T15:43:05;7.97;;;4.18;;
47764;SDS011;33529;49.242;8.670;2022-12-07T15:45:51;7.63;;;4.30;;
47764;SDS011;33529;49.242;8.670;2022-12-07T15:48:18;6.97;;;3.15;;
47764;SDS011;33529;49.242;8.670;2022-12-07T15:51:00;7.40;;;4.03;;
47764;SDS011;33529;49.242;8.670;2022-12-07T15:53:32;6.50;;;3.53;;
47764;SDS011;33529;49.242;8.670;2022-12-07T15:55:59;7.40;;;4.10;;
47764;SDS011;33529;49.242;8.670;2022-12-07T15:58:26;10.70;;;3.92;;
47764;SDS011;33529;49.242;8.670;2022-12-07T16:00:53;6.13;;;3.53;;
47764;SDS011;33529;49.242;8.670;2022-12-07T16:03:20;6.97;;;4.20;;
47764;SDS011;33529;49.242;8.670;2022-12-07T16:05:50;8.43;;;4.35;;
47764;SDS011;33529;49.242;8.670;2022-12-07T16:08:18;6.25;;;3.90;;
47764;SDS011;33529;49.242;8.670;2022-12-07T16:10:46;7.50;;;4.82;;
47764;SDS011;33529;49.242;8.670;2022-12-07T16:13:13;8.77;;;4.07;;
47764;SDS011;33529;49.242;8.670;2022-12-07T16:15:42;7.32;;;3.60;;
47764;SDS011;33529;49.242;8.670;2022-12-07T16:18:09;8.32;;;4.28;;
47764;SDS011;33529;49.242;8.670;2022-12-07T16:20:36;7.88;;;4.05;;
47764;SDS011;33529;49.242;8.670;2022-12-07T16:23:03;7.20;;;4.28;;
47764;SDS011;33529;49.242;8.670;2022-12-07T16:25:30;6.55;;;3.88;;
47764;SDS011;33529;49.242;8.670;2022-12-07T16:27:56;6.68;;;4.00;;
47764;SDS011;33529;49.242;8.670;2022-12-07T16:30:23;6.82;;;4.10;;
47764;SDS011;33529;49.242;8.670;2022-12-07T16:32:51;8.10;;;3.90;;
47764;SDS011;33529;49.242;8.670;2022-12-07T16:37:49;8.55;;;4.40;;
47764;SDS011;33529;49.242;8.670;2022-12-07T16:40:16;7.18;;;3.58;;
47764;SDS011;33529;49.242;8.670;2022-12-07T16:42:43;8.25;;;3.97;;
47764;SDS011;33529;49.242;8.670;2022-12-07T16:45:10;8.63;;;5.05;;